Terminal Aerodrome Forecast
Issued by NWS

Home | Current Version | Previous Version | Text Only | Print | Product List | Glossary On
Versions: 1 2 3 4 5 6 7 8 9 10 11 12 13 14 15 16 17 18 19 20 21 22
000
FTUS46 KPQR 201133
TAFONP
TAF
KONP 201133Z 2012/2112 09009KT P6SM VCSH BKN015 OVC020
     FM201500 15012KT P6SM -RA OVC035
     FM201900 16012G20KT P6SM -SHRA BKN050 OVC070
     FM210000 17011KT P6SM OVC050=

USA.gov is the U.S. government's official web portal to all federal, state and local government web resources and services.